createdAt,value
2023-01-03T00:02:12.018Z,7.68
2023-01-03T00:12:30.456Z,7.71
2023-01-03T00:22:38.300Z,7.71
2023-01-03T00:32:45.430Z,7.60
2023-01-03T00:43:10.187Z,7.59
2023-01-03T00:53:17.570Z,7.63
2023-01-03T01:03:25.114Z,7.68
2023-01-03T01:13:34.319Z,7.78
2023-01-03T01:23:42.976Z,7.77
2023-01-03T01:33:49.386Z,7.70
2023-01-03T01:44:14.929Z,7.65
2023-01-03T01:54:22.719Z,7.66
2023-01-03T02:04:34.388Z,7.76
2023-01-03T02:14:39.964Z,7.89
2023-01-03T02:25:18.671Z,8.08
2023-01-03T02:35:24.246Z,8.24
2023-01-03T02:45:37.896Z,8.39
2023-01-03T02:55:47.811Z,8.49
2023-01-03T03:05:55.334Z,8.56
2023-01-03T03:16:06.974Z,8.54
2023-01-03T03:26:17.429Z,8.44
2023-01-03T03:36:31.834Z,8.36
2023-01-03T03:46:41.800Z,8.44
2023-01-03T03:56:50.313Z,8.57
2023-01-03T04:06:58.052Z,8.69
2023-01-03T04:17:05.560Z,8.73
2023-01-03T04:27:12.775Z,8.67
2023-01-03T04:37:19.078Z,8.61
2023-01-03T04:47:26.316Z,8.55
2023-01-03T04:57:33.747Z,8.52
2023-01-03T05:07:41.016Z,8.39
2023-01-03T05:17:48.217Z,8.25
2023-01-03T05:27:55.536Z,8.14
2023-01-03T05:38:02.718Z,8.08
2023-01-03T05:48:11.460Z,8.09
2023-01-03T05:58:19.256Z,8.12
2023-01-03T06:08:26.554Z,8.11
2023-01-03T06:18:35.579Z,8.05
2023-01-03T06:28:42.943Z,7.92
2023-01-03T06:38:50.448Z,7.78
2023-01-03T06:49:15.429Z,7.79
2023-01-03T06:59:23.190Z,7.84
2023-01-03T07:09:30.707Z,7.89
2023-01-03T07:19:37.829Z,7.92
2023-01-03T07:29:44.947Z,7.88
2023-01-03T07:39:51.904Z,7.90
2023-01-03T07:49:59.195Z,7.97
2023-01-03T08:00:07.431Z,8.08
2023-01-03T08:10:31.999Z,8.19
2023-01-03T08:20:39.074Z,8.31
2023-01-03T08:30:47.026Z,8.39
2023-01-03T08:40:55.143Z,8.41
2023-01-03T08:51:02.446Z,8.43
2023-01-03T09:01:11.701Z,8.57
2023-01-03T09:11:18.743Z,8.72
2023-01-03T09:21:25.859Z,8.89
2023-01-03T09:31:32.195Z,8.83
2023-01-03T09:41:41.753Z,8.70
2023-01-03T09:52:05.405Z,8.74
2023-01-03T10:02:34.538Z,8.79
2023-01-03T10:12:38.609Z,8.76
2023-01-03T10:22:49.379Z,8.83
2023-01-03T10:33:05.201Z,8.83
2023-01-03T10:43:11.035Z,8.86
2023-01-03T10:53:22.247Z,8.95
2023-01-03T11:03:29.517Z,9.01
2023-01-03T11:13:34.996Z,9.03
2023-01-03T11:23:58.952Z,9.03
2023-01-03T11:34:06.812Z,9.01
2023-01-03T11:44:24.102Z,8.82
2023-01-03T11:54:52.811Z,8.70
2023-01-03T12:04:59.536Z,8.68
2023-01-03T12:15:12.615Z,8.62
2023-01-03T12:25:18.650Z,8.40
2023-01-03T12:35:37.751Z,8.34
2023-01-03T12:45:43.097Z,8.16
2023-01-03T12:55:50.278Z,8.01
2023-01-03T13:05:58.070Z,7.90
2023-01-03T13:16:36.032Z,7.79
2023-01-03T13:27:20.723Z,7.73
2023-01-03T13:37:29.086Z,7.59
2023-01-03T13:47:34.820Z,7.63
2023-01-03T13:57:51.823Z,7.61
2023-01-03T14:08:19.495Z,7.50
2023-01-03T14:18:32.943Z,7.32
2023-01-03T14:28:41.286Z,7.19
2023-01-03T14:38:47.784Z,7.01
2023-01-03T14:49:02.689Z,6.91
2023-01-03T14:59:10.067Z,6.87
2023-01-03T15:09:14.459Z,6.67
2023-01-03T15:19:22.706Z,6.44
2023-01-03T15:29:46.207Z,6.35
2023-01-03T15:39:53.830Z,6.29
2023-01-03T15:50:03.827Z,6.37
2023-01-03T16:00:16.642Z,6.37
2023-01-03T16:10:23.855Z,6.27
2023-01-03T16:20:31.722Z,6.02
2023-01-03T16:30:39.191Z,5.82
2023-01-03T16:40:47.308Z,5.67
2023-01-03T16:50:52.518Z,5.55
2023-01-03T17:01:00.048Z,5.36
2023-01-03T17:11:09.155Z,5.13
2023-01-03T17:21:26.578Z,4.95
2023-01-03T17:31:33.699Z,5.01
2023-01-03T17:41:55.243Z,5.13
2023-01-03T17:52:06.443Z,5.20
2023-01-03T18:02:17.192Z,5.19
2023-01-03T18:12:26.929Z,5.05
2023-01-03T18:22:32.428Z,4.89
2023-01-03T18:32:39.571Z,4.59
2023-01-03T18:43:04.634Z,4.31
2023-01-03T18:53:16.143Z,4.01
2023-01-03T19:03:22.420Z,3.60
2023-01-03T19:13:50.731Z,3.31
2023-01-03T19:23:58.564Z,3.20
2023-01-03T19:34:07.298Z,2.93
2023-01-03T19:44:13.100Z,2.49
2023-01-03T19:54:20.495Z,2.18
2023-01-03T20:04:28.100Z,1.96
2023-01-03T20:14:34.824Z,1.98
2023-01-03T20:24:42.331Z,2.18
2023-01-03T20:34:49.448Z,2.28
2023-01-03T20:44:56.862Z,2.25
2023-01-03T20:55:04.091Z,2.22
2023-01-03T21:05:11.726Z,2.29
2023-01-03T21:15:19.029Z,2.31
2023-01-03T21:25:30.190Z,2.13
2023-01-03T21:35:41.190Z,1.96
2023-01-03T21:45:50.959Z,2.00
2023-01-03T21:55:56.463Z,2.03
2023-01-03T22:06:11.190Z,1.95
2023-01-03T22:16:19.139Z,1.97
2023-01-03T22:26:30.753Z,2.14
2023-01-03T22:36:41.675Z,2.14
2023-01-03T22:46:48.768Z,2.05
2023-01-03T22:56:56.078Z,2.01
2023-01-03T23:07:02.655Z,2.02
2023-01-03T23:17:27.286Z,2.14
2023-01-03T23:27:33.673Z,2.22
2023-01-03T23:37:41.095Z,2.32
2023-01-03T23:47:48.144Z,2.30
2023-01-03T23:57:55.322Z,2.28
